createdAt,value
2022-11-24T00:00:22.714Z,93102.09
2022-11-24T00:01:27.002Z,93097.44
2022-11-24T00:02:29.161Z,93100.91
2022-11-24T00:03:30.837Z,93096.09
2022-11-24T00:04:32.860Z,93109.03
2022-11-24T00:05:36.439Z,93102.59
2022-11-24T00:06:38.025Z,93103.13
2022-11-24T00:07:39.606Z,93110.28
2022-11-24T00:08:43.309Z,93105.91
2022-11-24T00:09:44.846Z,93110.53
2022-11-24T00:10:46.346Z,93106.88
2022-11-24T00:11:47.860Z,93103.72
2022-11-24T00:12:49.381Z,93103.47
2022-11-24T00:13:51.110Z,93107.38
2022-11-24T00:14:52.668Z,93102.16
2022-11-24T00:15:54.160Z,93109.38
2022-11-24T00:16:55.712Z,93104.28
2022-11-24T00:17:57.298Z,93110.84
2022-11-24T00:19:01.164Z,93108.22
2022-11-24T00:20:02.815Z,93110.28
2022-11-24T00:21:06.184Z,93108.47
2022-11-24T00:22:19.766Z,93115.72
2022-11-24T00:23:21.302Z,93112.34
2022-11-24T00:24:22.857Z,93111.63
2022-11-24T00:25:24.366Z,93114.88
2022-11-24T00:26:32.582Z,93108.59
2022-11-24T00:27:34.132Z,93112.00
2022-11-24T00:28:36.772Z,93114.06
2022-11-24T00:29:38.335Z,93110.91
2022-11-24T00:30:39.945Z,93105.22
2022-11-24T00:31:42.094Z,93107.69
2022-11-24T00:32:43.630Z,93110.75
2022-11-24T00:33:45.578Z,93111.59
2022-11-24T00:34:47.368Z,93116.47
2022-11-24T00:35:54.486Z,93116.88
2022-11-24T00:36:57.374Z,93115.09
2022-11-24T00:37:58.892Z,93117.56
2022-11-24T00:39:01.957Z,93116.34
2022-11-24T00:40:04.036Z,93119.94
2022-11-24T00:41:06.303Z,93127.66
2022-11-24T00:42:07.807Z,93129.41
2022-11-24T00:43:09.383Z,93121.75
2022-11-24T00:44:11.053Z,93131.44
2022-11-24T00:45:14.223Z,93126.22
2022-11-24T00:46:16.012Z,93127.06
2022-11-24T00:47:17.768Z,93128.13
2022-11-24T00:48:19.431Z,93129.28
2022-11-24T00:49:20.971Z,93130.63
2022-11-24T00:50:22.487Z,93134.19
2022-11-24T00:51:25.943Z,93133.25
2022-11-24T00:52:28.810Z,93133.44
2022-11-24T00:53:30.637Z,93139.84
2022-11-24T00:54:32.386Z,93135.47
2022-11-24T00:55:34.180Z,93140.50
2022-11-24T00:56:35.880Z,93149.19
2022-11-24T00:57:37.420Z,93139.97
2022-11-24T00:58:39.186Z,93141.91
2022-11-24T00:59:40.694Z,93144.50
2022-11-24T01:00:42.201Z,93143.22
2022-11-24T01:01:43.803Z,93143.56
2022-11-24T01:02:45.511Z,93146.72
2022-11-24T01:03:47.609Z,93152.28
2022-11-24T01:04:49.183Z,93151.28
2022-11-24T01:05:50.696Z,93155.84
2022-11-24T01:06:52.271Z,93156.69
2022-11-24T01:07:55.326Z,93155.25
2022-11-24T01:08:57.467Z,93163.13
2022-11-24T01:09:59.065Z,93164.56
2022-11-24T01:11:09.440Z,93168.69
2022-11-24T01:12:10.988Z,93170.41
2022-11-24T01:13:12.526Z,93167.75
2022-11-24T01:14:14.065Z,93169.75
2022-11-24T01:15:15.599Z,93172.00
2022-11-24T01:16:19.917Z,93173.97
2022-11-24T01:17:21.507Z,93177.38
2022-11-24T01:18:23.018Z,93183.28
2022-11-24T01:19:24.542Z,93180.81
2022-11-24T01:20:26.084Z,93180.13
2022-11-24T01:21:27.680Z,93185.53
2022-11-24T01:22:29.180Z,93187.50
2022-11-24T01:23:32.253Z,93184.56
2022-11-24T01:24:34.091Z,93188.50
2022-11-24T01:25:39.277Z,93195.19
2022-11-24T01:26:41.271Z,93194.81
2022-11-24T01:27:42.811Z,93196.47
2022-11-24T01:28:47.494Z,93198.94
2022-11-24T01:29:49.304Z,93201.41
2022-11-24T01:30:57.276Z,93218.03
2022-11-24T01:31:58.900Z,93204.31
2022-11-24T01:33:00.413Z,93206.44
2022-11-24T01:34:01.961Z,93205.31
2022-11-24T01:35:04.279Z,93209.19
2022-11-24T01:36:06.622Z,93207.44
2022-11-24T01:37:08.146Z,93212.00
2022-11-24T01:38:09.640Z,93212.34
2022-11-24T01:39:12.633Z,93216.09
2022-11-24T01:40:14.170Z,93215.63
2022-11-24T01:41:18.229Z,93220.03
2022-11-24T01:42:19.818Z,93220.50
2022-11-24T01:43:21.899Z,93225.88
2022-11-24T01:44:25.132Z,93223.91
2022-11-24T01:45:35.643Z,93225.84
2022-11-24T01:46:42.025Z,93227.53
2022-11-24T01:47:44.069Z,93221.97
2022-11-24T01:48:50.886Z,93227.66
2022-11-24T01:49:55.959Z,93225.81
2022-11-24T01:51:06.471Z,93221.91
2022-11-24T01:52:13.768Z,93227.00
2022-11-24T01:53:15.483Z,93223.31
2022-11-24T01:54:22.631Z,93226.69
2022-11-24T01:55:31.547Z,93224.72
2022-11-24T01:56:36.680Z,93225.53
2022-11-24T01:57:44.611Z,93226.34
2022-11-24T01:58:47.972Z,93232.56
2022-11-24T01:59:53.458Z,93231.75
2022-11-24T02:00:55.584Z,93241.00
2022-11-24T02:01:57.456Z,93237.78
2022-11-24T02:02:59.480Z,93244.94
2022-11-24T02:04:05.587Z,93238.44
2022-11-24T02:05:12.307Z,93234.03
2022-11-24T02:06:18.638Z,93240.41
2022-11-24T02:07:20.515Z,93242.88
2022-11-24T02:08:29.087Z,93244.13
2022-11-24T02:09:37.637Z,93238.44
2022-11-24T02:10:39.325Z,93249.56
2022-11-24T02:11:43.557Z,93252.97
2022-11-24T02:12:47.635Z,93248.88
2022-11-24T02:13:50.255Z,93254.16
2022-11-24T02:14:53.187Z,93255.59
2022-11-24T02:15:55.241Z,93251.16
2022-11-24T02:16:56.778Z,93246.59
2022-11-24T02:17:59.149Z,93258.00
2022-11-24T02:19:00.910Z,93260.28
2022-11-24T02:20:06.615Z,93259.66
2022-11-24T02:21:09.588Z,93264.03
2022-11-24T02:22:16.071Z,93263.09
2022-11-24T02:23:23.040Z,93264.88
2022-11-24T02:24:33.167Z,93256.88
2022-11-24T02:25:44.727Z,93264.03
2022-11-24T02:26:48.173Z,93267.81
2022-11-24T02:27:53.824Z,93262.44
2022-11-24T02:28:56.122Z,93265.56
2022-11-24T02:29:58.316Z,93261.09
2022-11-24T02:31:00.771Z,93257.00
2022-11-24T02:32:07.259Z,93256.81
2022-11-24T02:33:10.338Z,93258.47
2022-11-24T02:34:11.869Z,93255.72
2022-11-24T02:35:14.062Z,93262.56
2022-11-24T02:36:15.627Z,93260.75
2022-11-24T02:37:17.144Z,93265.50
2022-11-24T02:38:19.141Z,93268.47
2022-11-24T02:39:20.732Z,93263.38
2022-11-24T02:40:24.982Z,93268.59
2022-11-24T02:41:28.655Z,93270.06
2022-11-24T02:42:37.688Z,93267.66
2022-11-24T02:43:43.028Z,93269.13
2022-11-24T02:44:49.005Z,93271.25
2022-11-24T02:45:50.601Z,93279.56
2022-11-24T02:47:01.999Z,93279.59
2022-11-24T02:48:03.699Z,93280.84
2022-11-24T02:49:05.224Z,93277.59
2022-11-24T02:50:07.211Z,93281.38
2022-11-24T02:51:08.818Z,93279.25
2022-11-24T02:52:10.329Z,93279.75
2022-11-24T02:53:11.977Z,93277.47
2022-11-24T02:54:13.499Z,93278.75
2022-11-24T02:55:15.292Z,93283.97
2022-11-24T02:56:18.282Z,93283.34
2022-11-24T02:57:19.822Z,93279.44
2022-11-24T02:58:22.716Z,93277.13
2022-11-24T02:59:24.650Z,93283.38
2022-11-24T03:00:26.169Z,93283.38
2022-11-24T03:01:27.690Z,93278.47
2022-11-24T03:02:29.272Z,93281.09
2022-11-24T03:03:31.270Z,93283.03
2022-11-24T03:04:33.121Z,93287.28
2022-11-24T03:05:34.751Z,93287.44
2022-11-24T03:06:36.362Z,93288.75
2022-11-24T03:07:38.031Z,93292.19
2022-11-24T03:08:39.551Z,93287.94
2022-11-24T03:09:41.077Z,93273.59
2022-11-24T03:10:42.585Z,93283.84
2022-11-24T03:11:44.075Z,93292.16
2022-11-24T03:12:45.600Z,93289.41
2022-11-24T03:13:49.396Z,93295.59
2022-11-24T03:14:50.930Z,93290.06
2022-11-24T03:15:52.519Z,93288.44
2022-11-24T03:16:54.013Z,93291.84
2022-11-24T03:17:55.787Z,93293.16
2022-11-24T03:18:57.369Z,93295.91
2022-11-24T03:20:03.095Z,93285.66
2022-11-24T03:21:06.383Z,93280.13
2022-11-24T03:22:07.918Z,93277.34
2022-11-24T03:23:09.461Z,93277.66
2022-11-24T03:24:10.975Z,93274.56
2022-11-24T03:25:12.503Z,93287.59
2022-11-24T03:26:16.424Z,93293.66
2022-11-24T03:27:17.939Z,93285.66
2022-11-24T03:28:19.443Z,93296.75
2022-11-24T03:29:22.497Z,93289.75
2022-11-24T03:30:23.991Z,93286.63
2022-11-24T03:31:25.700Z,93291.69
2022-11-24T03:32:27.231Z,93300.34
2022-11-24T03:33:28.757Z,93296.56
2022-11-24T03:34:30.323Z,93300.00
2022-11-24T03:35:31.862Z,93303.44
2022-11-24T03:36:33.423Z,93296.59
2022-11-24T03:37:34.974Z,93298.53
2022-11-24T03:38:36.491Z,93292.47
2022-11-24T03:39:38.068Z,93300.00
2022-11-24T03:40:39.577Z,93302.63
2022-11-24T03:41:41.157Z,93305.53
2022-11-24T03:42:42.693Z,93299.03
2022-11-24T03:43:44.486Z,93310.44
2022-11-24T03:44:47.404Z,93308.00
2022-11-24T03:45:49.873Z,93302.78
2022-11-24T03:46:51.502Z,93305.41
2022-11-24T03:47:53.040Z,93313.22
2022-11-24T03:48:54.572Z,93311.41
2022-11-24T03:49:56.087Z,93315.50
2022-11-24T03:50:58.892Z,93317.44
2022-11-24T03:52:03.848Z,93316.16
2022-11-24T03:53:08.380Z,93313.06
2022-11-24T03:54:09.955Z,93315.81
2022-11-24T03:55:11.466Z,93315.81
2022-11-24T03:56:13.210Z,93314.19
2022-11-24T03:57:14.744Z,93312.72
2022-11-24T03:58:16.321Z,93317.59
2022-11-24T03:59:17.836Z,93323.50
2022-11-24T04:00:20.975Z,93329.84
2022-11-24T04:01:22.498Z,93321.69
2022-11-24T04:02:24.117Z,93331.13
2022-11-24T04:03:25.919Z,93326.88
2022-11-24T04:04:27.424Z,93334.22
2022-11-24T04:05:28.993Z,93326.91
2022-11-24T04:06:30.526Z,93330.84
2022-11-24T04:07:32.070Z,93332.94
2022-11-24T04:08:33.629Z,93340.63
2022-11-24T04:09:35.173Z,93336.50
2022-11-24T04:10:38.516Z,93327.53
2022-11-24T04:11:40.067Z,93334.75
2022-11-24T04:12:41.581Z,93335.88
2022-11-24T04:13:43.104Z,93338.63
2022-11-24T04:14:44.628Z,93341.25
2022-11-24T04:15:47.838Z,93339.00
2022-11-24T04:16:49.430Z,93334.91
2022-11-24T04:17:50.969Z,93341.91
2022-11-24T04:18:52.760Z,93351.84
2022-11-24T04:19:54.314Z,93348.78
2022-11-24T04:20:55.847Z,93352.69
2022-11-24T04:21:57.383Z,93344.88
2022-11-24T04:22:58.920Z,93345.66
2022-11-24T04:24:00.450Z,93344.34
2022-11-24T04:25:02.137Z,93352.19
2022-11-24T04:26:03.687Z,93354.78
2022-11-24T04:27:05.217Z,93355.78
2022-11-24T04:28:06.744Z,93358.06
2022-11-24T04:29:09.524Z,93360.34
2022-11-24T04:30:11.373Z,93366.72
2022-11-24T04:31:14.613Z,93361.66
2022-11-24T04:32:16.218Z,93360.50
2022-11-24T04:33:17.755Z,93370.63
2022-11-24T04:34:19.263Z,93377.81
2022-11-24T04:35:20.891Z,93382.69
2022-11-24T04:36:22.391Z,93375.50
2022-11-24T04:37:23.938Z,93382.38
2022-11-24T04:39:23.990Z,93387.75
2022-11-24T04:39:50.999Z,93389.72
2022-11-24T04:40:55.591Z,93389.41
2022-11-24T04:41:57.068Z,93385.16
2022-11-24T04:42:58.565Z,93391.34
2022-11-24T04:44:00.046Z,93392.97
2022-11-24T04:45:01.593Z,93383.34
2022-11-24T04:46:03.099Z,93384.81
2022-11-24T04:47:06.269Z,93385.16
2022-11-24T04:48:07.761Z,93385.63
2022-11-24T04:49:09.352Z,93391.19
2022-11-24T04:50:10.878Z,93396.91
2022-11-24T04:51:13.744Z,93392.00
2022-11-24T04:52:15.309Z,93398.03
2022-11-24T04:53:16.858Z,93392.81
2022-11-24T04:54:18.511Z,93397.41
2022-11-24T04:55:20.032Z,93404.41
2022-11-24T04:56:21.559Z,93407.34
2022-11-24T04:57:26.142Z,93402.63
2022-11-24T04:58:27.702Z,93404.25
2022-11-24T04:59:29.254Z,93403.25
2022-11-24T05:00:30.740Z,93404.25
2022-11-24T05:01:32.641Z,93400.81
2022-11-24T05:02:35.611Z,93403.59
2022-11-24T05:03:37.200Z,93400.00
2022-11-24T05:04:39.107Z,93411.91
2022-11-24T05:05:40.674Z,93412.91
2022-11-24T05:06:42.235Z,93412.56
2022-11-24T05:07:43.797Z,93413.56
2022-11-24T05:08:46.887Z,93409.31
2022-11-24T05:09:59.440Z,93419.75
2022-11-24T05:11:04.656Z,93417.31
2022-11-24T05:12:06.646Z,93412.88
2022-11-24T05:13:11.671Z,93412.22
2022-11-24T05:14:13.184Z,93415.03
2022-11-24T05:15:14.757Z,93420.88
2022-11-24T05:16:16.344Z,93410.09
2022-11-24T05:17:17.902Z,93420.06
2022-11-24T05:18:20.789Z,93417.13
2022-11-24T05:19:22.343Z,93418.44
2022-11-24T05:20:24.479Z,93414.03
2022-11-24T05:21:26.035Z,93412.25
2022-11-24T05:22:28.609Z,93410.78
2022-11-24T05:23:30.527Z,93405.69
2022-11-24T05:24:32.455Z,93410.75
2022-11-24T05:25:34.964Z,93412.59
2022-11-24T05:26:36.524Z,93412.09
2022-11-24T05:27:38.065Z,93405.88
2022-11-24T05:28:39.563Z,93400.00
2022-11-24T05:29:41.071Z,93405.38
2022-11-24T05:30:43.014Z,93402.09
2022-11-24T05:31:44.629Z,93405.38
2022-11-24T05:32:46.202Z,93398.69
2022-11-24T05:33:49.277Z,93390.34
2022-11-24T05:34:52.543Z,93396.41
2022-11-24T05:35:56.644Z,93393.63
2022-11-24T05:36:59.688Z,93396.25
2022-11-24T05:38:01.223Z,93398.34
2022-11-24T05:39:03.053Z,93402.13
2022-11-24T05:40:05.977Z,93401.97
2022-11-24T05:41:07.497Z,93407.19
2022-11-24T05:42:09.316Z,93408.00
2022-11-24T05:43:11.586Z,93406.38
2022-11-24T05:44:13.113Z,93410.13
2022-11-24T05:45:17.075Z,93398.84
2022-11-24T05:46:18.628Z,93400.00
2022-11-24T05:47:20.348Z,93398.38
2022-11-24T05:48:21.886Z,93398.34
2022-11-24T05:49:24.723Z,93400.31
2022-11-24T05:50:26.230Z,93399.53
2022-11-24T05:51:39.968Z,93400.81
2022-11-24T05:52:41.555Z,93404.56
2022-11-24T05:53:43.092Z,93409.13
2022-11-24T05:54:44.658Z,93411.56
2022-11-24T05:55:46.178Z,93420.88
2022-11-24T05:56:47.692Z,93413.38
2022-11-24T05:57:49.225Z,93415.31
2022-11-24T05:58:50.766Z,93420.88
2022-11-24T05:59:52.273Z,93415.97
2022-11-24T06:00:53.770Z,93419.75
2022-11-24T06:01:55.400Z,93422.22
2022-11-24T06:02:57.639Z,93420.88
2022-11-24T06:03:59.242Z,93418.59
2022-11-24T06:05:02.113Z,93419.59
2022-11-24T06:06:03.813Z,93420.41
2022-11-24T06:07:07.487Z,93419.91
2022-11-24T06:08:09.010Z,93419.91
2022-11-24T06:09:10.507Z,93426.59
2022-11-24T06:10:12.076Z,93430.19
2022-11-24T06:11:13.635Z,93426.09
2022-11-24T06:12:15.165Z,93424.63
2022-11-24T06:13:16.714Z,93427.91
2022-11-24T06:14:18.487Z,93428.38
2022-11-24T06:15:20.070Z,93433.94
2022-11-24T06:16:21.691Z,93435.44
2022-11-24T06:17:23.265Z,93439.50
2022-11-24T06:18:24.786Z,93440.63
2022-11-24T06:19:26.443Z,93437.38
2022-11-24T06:20:32.607Z,93438.66
2022-11-24T06:21:34.683Z,93436.06
2022-11-24T06:22:36.834Z,93438.66
2022-11-24T06:23:38.643Z,93442.09
2022-11-24T06:24:40.204Z,93440.47
2022-11-24T06:25:41.707Z,93441.28
2022-11-24T06:26:43.238Z,93439.66
2022-11-24T06:27:45.098Z,93439.16
2022-11-24T06:28:46.702Z,93437.88
2022-11-24T06:29:48.300Z,93435.09
2022-11-24T06:30:49.890Z,93444.88
2022-11-24T06:31:51.464Z,93443.41
2022-11-24T06:32:54.960Z,93447.66
2022-11-24T06:33:56.496Z,93442.09
2022-11-24T06:34:58.037Z,93444.91
2022-11-24T06:36:02.661Z,93439.81
2022-11-24T06:37:04.404Z,93443.41
2022-11-24T06:38:06.486Z,93446.50
2022-11-24T06:39:08.282Z,93435.56
2022-11-24T06:40:10.406Z,93446.00
2022-11-24T06:41:13.388Z,93450.25
2022-11-24T06:42:15.015Z,93451.91
2022-11-24T06:43:16.531Z,93442.56
2022-11-24T06:44:18.070Z,93454.34
2022-11-24T06:45:19.625Z,93452.22
2022-11-24T06:46:21.395Z,93447.50
2022-11-24T06:47:23.044Z,93451.88
2022-11-24T06:48:25.116Z,93441.59
2022-11-24T06:49:26.655Z,93447.16
2022-11-24T06:50:33.447Z,93447.16
2022-11-24T06:51:36.680Z,93447.16
2022-11-24T06:52:38.202Z,93439.97
2022-11-24T06:53:40.621Z,93444.53
2022-11-24T06:54:42.131Z,93442.44
2022-11-24T06:55:44.142Z,93444.72
2022-11-24T06:56:45.693Z,93444.53
2022-11-24T06:57:47.198Z,93444.22
2022-11-24T06:58:50.450Z,93438.16
2022-11-24T06:59:51.952Z,93441.41
2022-11-24T07:00:53.757Z,93434.25
2022-11-24T07:01:55.455Z,93436.19
2022-11-24T07:02:57.056Z,93445.03
2022-11-24T07:03:59.006Z,93441.13
2022-11-24T07:05:00.496Z,93449.28
2022-11-24T07:06:01.986Z,93443.25
2022-11-24T07:07:04.865Z,93445.34
2022-11-24T07:08:06.390Z,93445.69
2022-11-24T07:09:08.185Z,93451.25
2022-11-24T07:10:09.959Z,93449.09
2022-11-24T07:11:15.343Z,93444.22
2022-11-24T07:12:16.925Z,93445.34
2022-11-24T07:13:18.477Z,93445.19
2022-11-24T07:14:20.057Z,93449.63
2022-11-24T07:15:21.611Z,93445.19
2022-11-24T07:16:25.039Z,93453.81
2022-11-24T07:17:26.688Z,93448.59
2022-11-24T07:18:28.234Z,93461.66
2022-11-24T07:19:29.799Z,93449.78
2022-11-24T07:20:31.588Z,93456.94
2022-11-24T07:21:33.150Z,93463.50
2022-11-24T07:22:36.087Z,93468.03
2022-11-24T07:23:37.798Z,93463.81
2022-11-24T07:24:39.331Z,93464.94
2022-11-24T07:25:40.854Z,93471.94
2022-11-24T07:26:42.414Z,93465.75
2022-11-24T07:27:43.992Z,93460.00
2022-11-24T07:28:45.589Z,93472.75
2022-11-24T07:29:47.146Z,93469.00
2022-11-24T07:30:48.638Z,93475.03
2022-11-24T07:31:50.259Z,93472.75
2022-11-24T07:32:51.912Z,93466.06
2022-11-24T07:33:54.714Z,93475.03
2022-11-24T07:34:56.237Z,93463.78
2022-11-24T07:35:59.548Z,93479.78
2022-11-24T07:37:01.093Z,93480.59
2022-11-24T07:38:03.955Z,93475.00
2022-11-24T07:39:06.249Z,93485.50
2022-11-24T07:40:08.917Z,93482.41
2022-11-24T07:41:12.878Z,93484.84
2022-11-24T07:42:14.387Z,93483.03
2022-11-24T07:43:19.941Z,93486.81
2022-11-24T07:44:21.869Z,93489.56
2022-11-24T07:45:23.445Z,93484.31
2022-11-24T07:46:25.013Z,93484.31
2022-11-24T07:47:26.617Z,93485.34
2022-11-24T07:48:28.208Z,93479.09
2022-11-24T07:49:29.724Z,93483.22
2022-11-24T07:50:31.221Z,93477.00
2022-11-24T07:51:32.787Z,93480.09
2022-11-24T07:52:34.320Z,93476.16
2022-11-24T07:53:37.913Z,93480.91
2022-11-24T07:54:39.465Z,93471.91
2022-11-24T07:55:41.004Z,93476.47
2022-11-24T07:56:42.508Z,93469.47
2022-11-24T07:57:44.051Z,93482.41
2022-11-24T07:58:49.794Z,93474.38
2022-11-24T07:59:54.335Z,93471.75
2022-11-24T08:00:56.224Z,93470.47
2022-11-24T08:01:57.782Z,93472.09
2022-11-24T08:02:59.361Z,93476.50
2022-11-24T08:04:01.639Z,93481.06
2022-11-24T08:05:03.483Z,93483.03
2022-11-24T08:06:23.998Z,93476.81
2022-11-24T08:07:26.503Z,93482.91
2022-11-24T08:08:28.089Z,93482.72
2022-11-24T08:09:30.949Z,93482.22
2022-11-24T08:10:32.439Z,93477.94
2022-11-24T08:11:33.996Z,93484.69
2022-11-24T08:12:35.562Z,93470.28
2022-11-24T08:13:37.668Z,93469.28
2022-11-24T08:14:39.474Z,93471.44
2022-11-24T08:15:41.365Z,93470.44
2022-11-24T08:16:43.678Z,93477.94
2022-11-24T08:17:45.555Z,93473.88
2022-11-24T08:18:49.891Z,93478.56
2022-11-24T08:19:51.417Z,93479.91
2022-11-24T08:20:52.949Z,93482.25
2022-11-24T08:21:54.509Z,93482.88
2022-11-24T08:22:57.419Z,93484.16
2022-11-24T08:23:58.942Z,93482.06
2022-11-24T08:25:01.794Z,93480.56
2022-11-24T08:26:04.949Z,93475.84
2022-11-24T08:27:06.473Z,93490.91
2022-11-24T08:28:08.012Z,93486.94
2022-11-24T08:29:09.930Z,93475.53
2022-11-24T08:30:12.723Z,93478.13
2022-11-24T08:31:15.997Z,93491.06
2022-11-24T08:32:22.038Z,93491.69
2022-11-24T08:33:24.029Z,93488.75
2022-11-24T08:34:28.143Z,93480.56
2022-11-24T08:35:29.661Z,93475.84
2022-11-24T08:36:31.813Z,93484.84
2022-11-24T08:37:33.358Z,93486.94
2022-11-24T08:38:35.438Z,93483.38
2022-11-24T08:39:36.966Z,93492.34
2022-11-24T08:40:39.799Z,93491.84
2022-11-24T08:41:41.324Z,93496.72
2022-11-24T08:42:42.844Z,93500.97
2022-11-24T08:43:44.374Z,93496.59
2022-11-24T08:44:45.892Z,93491.81
2022-11-24T08:45:47.456Z,93499.56
2022-11-24T08:46:49.284Z,93495.28
2022-11-24T08:47:52.254Z,93500.16
2022-11-24T08:48:55.013Z,93497.69
2022-11-24T08:49:56.623Z,93504.72
2022-11-24T08:50:58.904Z,93501.91
2022-11-24T08:52:00.393Z,93503.06
2022-11-24T08:53:01.912Z,93506.13
2022-11-24T08:54:03.647Z,93503.84
2022-11-24T08:55:05.410Z,93509.75
2022-11-24T08:56:09.814Z,93518.06
2022-11-24T08:57:17.206Z,93509.22
2022-11-24T08:58:21.815Z,93509.28
2022-11-24T08:59:23.449Z,93521.84
2022-11-24T09:00:25.023Z,93517.41
2022-11-24T09:01:27.367Z,93521.00
2022-11-24T09:02:28.971Z,93521.19
2022-11-24T09:03:30.508Z,93522.16
2022-11-24T09:04:32.363Z,93518.03
2022-11-24T09:06:55.499Z,93513.66
2022-11-24T09:07:58.075Z,93514.53
2022-11-24T09:08:59.679Z,93522.97
2022-11-24T09:10:01.165Z,93518.56
2022-11-24T09:11:04.140Z,93519.56
2022-11-24T09:12:13.007Z,93524.06
2022-11-24T09:13:16.065Z,93528.31
2022-11-24T09:14:17.613Z,93519.16
2022-11-24T09:15:19.124Z,93529.09
2022-11-24T09:16:22.475Z,93531.44
2022-11-24T09:17:24.024Z,93526.53
2022-11-24T09:18:30.084Z,93532.56
2022-11-24T09:19:32.417Z,93530.03
2022-11-24T09:20:35.096Z,93527.47
2022-11-24T09:21:36.948Z,93526.69
2022-11-24T09:22:38.490Z,93529.38
2022-11-24T09:23:40.850Z,93532.84
2022-11-24T09:24:42.332Z,93539.38
2022-11-24T09:25:43.868Z,93539.09
2022-11-24T09:26:47.720Z,93537.66
2022-11-24T09:27:51.277Z,93546.63
2022-11-24T09:28:53.662Z,93544.72
2022-11-24T09:29:55.143Z,93546.72
2022-11-24T09:31:00.667Z,93543.03
2022-11-24T09:32:06.555Z,93548.28
2022-11-24T09:33:08.581Z,93539.75
2022-11-24T09:34:14.564Z,93543.47
2022-11-24T09:35:16.293Z,93534.19
2022-11-24T09:36:22.936Z,93537.16
2022-11-24T09:37:28.217Z,93538.84
2022-11-24T09:38:33.078Z,93538.28
2022-11-24T09:39:34.900Z,93542.47
2022-11-24T09:40:36.651Z,93537.53
2022-11-24T09:41:57.450Z,93540.44
2022-11-24T09:43:07.571Z,93540.09
2022-11-24T09:44:28.151Z,93541.38
2022-11-24T09:46:04.971Z,93533.59
2022-11-24T09:47:16.566Z,93534.59
2022-11-24T09:48:26.561Z,93548.00
2022-11-24T09:49:33.347Z,93552.38
2022-11-24T09:50:37.223Z,93547.69
2022-11-24T09:51:41.227Z,93546.16
2022-11-24T09:52:49.053Z,93546.19
2022-11-24T09:53:57.102Z,93544.09
2022-11-24T09:55:02.369Z,93544.97
2022-11-24T09:56:15.868Z,93537.91
2022-11-24T09:57:19.854Z,93547.84
2022-11-24T09:58:33.022Z,93538.25
2022-11-24T09:59:34.644Z,93545.59
2022-11-24T10:00:36.945Z,93551.00
2022-11-24T10:01:41.804Z,93545.03
2022-11-24T10:02:47.921Z,93552.78
2022-11-24T10:03:51.573Z,93554.38
2022-11-24T10:04:53.271Z,93554.91
2022-11-24T10:05:55.451Z,93558.03
2022-11-24T10:07:05.726Z,93569.47
2022-11-24T10:08:23.750Z,93569.44
2022-11-24T10:09:43.757Z,93577.03
2022-11-24T10:10:54.563Z,93578.75
2022-11-24T10:12:08.958Z,93589.88
2022-11-24T10:13:29.057Z,93581.66
2022-11-24T10:14:58.688Z,93592.00
2022-11-24T10:16:10.074Z,93581.66
2022-11-24T10:17:16.266Z,93587.03
2022-11-24T10:18:43.859Z,93578.88
2022-11-24T10:19:49.829Z,93581.09
2022-11-24T10:20:57.344Z,93582.59
2022-11-24T10:22:13.177Z,93580.47
2022-11-24T10:23:32.611Z,93578.19
2022-11-24T10:25:08.733Z,93575.22
2022-11-24T10:26:17.913Z,93578.03
2022-11-24T10:27:26.325Z,93581.81
2022-11-24T10:28:39.615Z,93586.78
2022-11-24T10:29:42.627Z,93590.59
2022-11-24T10:30:44.239Z,93587.16
2022-11-24T10:31:48.512Z,93585.88
2022-11-24T10:32:54.749Z,93586.94
2022-11-24T10:34:00.419Z,93577.09
2022-11-24T10:35:14.812Z,93572.63
2022-11-24T10:36:21.712Z,93575.59
2022-11-24T10:37:28.483Z,93583.25
2022-11-24T10:38:35.184Z,93580.66
2022-11-24T10:39:41.781Z,93584.34
2022-11-24T10:40:57.014Z,93581.47
2022-11-24T10:42:05.604Z,93577.69
2022-11-24T10:43:10.624Z,93573.94
2022-11-24T10:44:14.611Z,93576.75
2022-11-24T10:45:17.850Z,93579.47
2022-11-24T10:46:24.042Z,93582.44
2022-11-24T10:47:25.620Z,93588.66
2022-11-24T10:48:36.579Z,93572.91
2022-11-24T10:49:38.118Z,93583.63
2022-11-24T10:50:42.194Z,93579.19
2022-11-24T10:51:52.826Z,93586.41
2022-11-24T10:53:03.127Z,93586.41
2022-11-24T10:54:14.600Z,93582.72
2022-11-24T10:55:16.188Z,93590.69
2022-11-24T10:56:18.187Z,93583.41
2022-11-24T10:57:28.218Z,93588.06
2022-11-24T10:58:37.248Z,93585.13
2022-11-24T10:59:40.727Z,93586.88
2022-11-24T11:00:42.218Z,93588.88
2022-11-24T11:01:43.798Z,93585.13
2022-11-24T11:02:46.372Z,93601.47
2022-11-24T11:03:49.586Z,93595.47
2022-11-24T11:04:51.116Z,93593.91
2022-11-24T11:05:54.384Z,93583.94
2022-11-24T11:07:14.435Z,93583.97
2022-11-24T11:08:26.968Z,93586.81
2022-11-24T11:09:28.483Z,93582.19
2022-11-24T11:10:29.972Z,93581.34
2022-11-24T11:11:31.502Z,93580.47
2022-11-24T11:12:43.972Z,93581.69
2022-11-24T11:13:52.254Z,93581.47
2022-11-24T11:14:55.126Z,93577.66
2022-11-24T11:15:58.604Z,93579.31
2022-11-24T11:17:00.214Z,93586.56
2022-11-24T11:18:01.935Z,93590.25
2022-11-24T11:19:20.289Z,93585.16
2022-11-24T11:20:30.032Z,93583.97
2022-11-24T11:21:34.742Z,93587.19
2022-11-24T11:22:37.539Z,93581.44
2022-11-24T11:23:40.096Z,93591.38
2022-11-24T11:24:43.909Z,93581.94
2022-11-24T11:25:45.493Z,93581.78
2022-11-24T11:26:47.029Z,93593.13
2022-11-24T11:27:49.053Z,93586.31
2022-11-24T11:31:15.449Z,93581.72
2022-11-24T11:34:45.128Z,93574.75
2022-11-24T11:35:46.708Z,93584.75
2022-11-24T11:36:52.434Z,93576.59
2022-11-24T11:37:56.938Z,93587.34
2022-11-24T11:38:58.791Z,93579.16
2022-11-24T11:40:01.397Z,93577.66
2022-11-24T11:41:02.930Z,93576.44
2022-11-24T11:42:45.379Z,93578.34
2022-11-24T11:43:41.510Z,93571.19
2022-11-24T11:44:48.532Z,93575.91
2022-11-24T11:46:00.175Z,93576.25
2022-11-24T11:47:11.049Z,93580.91
2022-11-24T11:48:26.234Z,93584.66
2022-11-24T11:49:27.764Z,93594.91
2022-11-24T11:50:59.121Z,93588.16
2022-11-24T11:52:15.943Z,93578.91
2022-11-24T11:53:25.959Z,93573.34
2022-11-24T11:54:41.881Z,93581.94
2022-11-24T11:55:50.403Z,93580.38
2022-11-24T11:56:57.883Z,93576.34
2022-11-24T11:58:12.579Z,93582.50
2022-11-24T11:59:32.273Z,93578.72
2022-11-24T12:00:39.258Z,93586.13
2022-11-24T12:02:16.653Z,93580.84
2022-11-24T12:03:44.612Z,93582.72
2022-11-24T12:04:52.740Z,93583.88
2022-11-24T12:06:04.483Z,93588.69
2022-11-24T12:07:25.698Z,93585.88
2022-11-24T12:09:03.186Z,93589.06
2022-11-24T12:10:08.175Z,93594.38
2022-11-24T12:11:18.466Z,93585.03
2022-11-24T12:12:43.598Z,93592.94
2022-11-24T12:14:01.840Z,93594.94
2022-11-24T12:15:13.466Z,93591.13
2022-11-24T12:16:30.174Z,93593.38
2022-11-24T12:17:39.048Z,93592.94
2022-11-24T12:18:57.719Z,93592.75
2022-11-24T12:20:23.433Z,93594.69
2022-11-24T12:21:32.357Z,93601.00
2022-11-24T12:22:43.312Z,93594.56
2022-11-24T12:24:04.135Z,93602.38
2022-11-24T12:25:22.784Z,93601.38
2022-11-24T12:26:35.404Z,93602.28
2022-11-24T12:27:45.660Z,93595.84
2022-11-24T12:28:58.149Z,93596.31
2022-11-24T12:30:15.798Z,93593.31
2022-11-24T12:31:26.157Z,93599.47
2022-11-24T12:32:49.446Z,93602.09
2022-11-24T12:34:24.658Z,93602.44
2022-11-24T12:35:31.375Z,93615.69
2022-11-24T12:36:45.623Z,93605.75
2022-11-24T12:37:58.446Z,93600.06
2022-11-24T12:39:06.366Z,93598.47
2022-11-24T12:40:13.914Z,93607.78